sensor_id;sensor_type;location;lat;lon;timestamp;P1;durP1;ratioP1;P2;durP2;ratioP2
34988;SDS011;21192;40.182;44.516;2023-12-07T00:01:09;197.27;;;121.57;;
34988;SDS011;21192;40.182;44.516;2023-12-07T00:03:35;181.50;;;114.13;;
34988;SDS011;21192;40.182;44.516;2023-12-07T00:06:00;191.77;;;114.93;;
34988;SDS011;21192;40.182;44.516;2023-12-07T00:08:26;180.05;;;110.85;;
34988;SDS011;21192;40.182;44.516;2023-12-07T00:10:52;179.20;;;109.72;;
34988;SDS011;21192;40.182;44.516;2023-12-07T00:13:18;183.25;;;110.80;;
34988;SDS011;21192;40.182;44.516;2023-12-07T00:15:44;182.68;;;111.32;;
34988;SDS011;21192;40.182;44.516;2023-12-07T00:18:10;181.20;;;109.80;;
34988;SDS011;21192;40.182;44.516;2023-12-07T00:20:36;191.45;;;121.05;;
34988;SDS011;21192;40.182;44.516;2023-12-07T00:23:01;199.93;;;121.53;;
34988;SDS011;21192;40.182;44.516;2023-12-07T00:25:28;213.80;;;127.88;;
34988;SDS011;21192;40.182;44.516;2023-12-07T00:27:53;213.55;;;131.38;;
34988;SDS011;21192;40.182;44.516;2023-12-07T00:30:19;210.82;;;129.77;;
34988;SDS011;21192;40.182;44.516;2023-12-07T00:32:46;211.35;;;132.77;;
34988;SDS011;21192;40.182;44.516;2023-12-07T00:35:12;222.32;;;136.85;;
34988;SDS011;21192;40.182;44.516;2023-12-07T00:37:39;236.23;;;145.73;;
34988;SDS011;21192;40.182;44.516;2023-12-07T00:40:05;233.63;;;144.95;;
34988;SDS011;21192;40.182;44.516;2023-12-07T00:42:32;244.05;;;146.73;;
34988;SDS011;21192;40.182;44.516;2023-12-07T00:44:59;227.70;;;143.18;;
34988;SDS011;21192;40.182;44.516;2023-12-07T00:47:25;234.95;;;145.95;;
34988;SDS011;21192;40.182;44.516;2023-12-07T00:49:51;227.95;;;142.93;;
34988;SDS011;21192;40.182;44.516;2023-12-07T00:52:18;237.13;;;146.73;;
34988;SDS011;21192;40.182;44.516;2023-12-07T00:54:44;229.50;;;139.48;;
34988;SDS011;21192;40.182;44.516;2023-12-07T00:57:10;216.88;;;136.68;;
34988;SDS011;21192;40.182;44.516;2023-12-07T00:59:36;226.48;;;139.43;;
34988;SDS011;21192;40.182;44.516;2023-12-07T01:02:02;210.35;;;131.68;;
34988;SDS011;21192;40.182;44.516;2023-12-07T01:04:30;217.95;;;136.43;;
34988;SDS011;21192;40.182;44.516;2023-12-07T01:06:57;221.30;;;134.60;;
34988;SDS011;21192;40.182;44.516;2023-12-07T01:09:23;214.82;;;132.63;;
34988;SDS011;21192;40.182;44.516;2023-12-07T01:11:49;208.18;;;128.40;;
34988;SDS011;21192;40.182;44.516;2023-12-07T01:14:15;217.75;;;133.18;;
34988;SDS011;21192;40.182;44.516;2023-12-07T01:16:41;213.63;;;131.23;;
34988;SDS011;21192;40.182;44.516;2023-12-07T01:19:08;212.18;;;129.27;;
34988;SDS011;21192;40.182;44.516;2023-12-07T01:21:34;203.00;;;132.20;;
34988;SDS011;21192;40.182;44.516;2023-12-07T01:24:00;208.63;;;131.05;;
34988;SDS011;21192;40.182;44.516;2023-12-07T01:26:25;202.70;;;131.32;;
34988;SDS011;21192;40.182;44.516;2023-12-07T01:28:51;211.75;;;132.88;;
34988;SDS011;21192;40.182;44.516;2023-12-07T01:31:17;209.57;;;133.07;;
34988;SDS011;21192;40.182;44.516;2023-12-07T01:33:44;208.65;;;131.02;;
34988;SDS011;21192;40.182;44.516;2023-12-07T01:36:10;225.82;;;135.73;;
34988;SDS011;21192;40.182;44.516;2023-12-07T01:38:36;210.07;;;133.70;;
34988;SDS011;21192;40.182;44.516;2023-12-07T01:41:02;201.82;;;129.15;;
34988;SDS011;21192;40.182;44.516;2023-12-07T01:43:29;211.65;;;130.23;;
34988;SDS011;21192;40.182;44.516;2023-12-07T01:45:56;206.95;;;126.38;;
34988;SDS011;21192;40.182;44.516;2023-12-07T01:48:23;188.80;;;121.20;;
34988;SDS011;21192;40.182;44.516;2023-12-07T01:50:54;182.77;;;116.15;;
34988;SDS011;21192;40.182;44.516;2023-12-07T01:53:23;198.35;;;120.72;;
34988;SDS011;21192;40.182;44.516;2023-12-07T01:55:50;196.10;;;118.57;;
34988;SDS011;21192;40.182;44.516;2023-12-07T01:58:17;186.02;;;117.97;;
34988;SDS011;21192;40.182;44.516;2023-12-07T02:00:44;184.70;;;118.40;;
34988;SDS011;21192;40.182;44.516;2023-12-07T02:03:11;185.75;;;117.85;;
34988;SDS011;21192;40.182;44.516;2023-12-07T02:05:37;186.98;;;115.28;;
34988;SDS011;21192;40.182;44.516;2023-12-07T02:08:08;196.68;;;119.13;;
34988;SDS011;21192;40.182;44.516;2023-12-07T02:10:34;199.85;;;125.35;;
34988;SDS011;21192;40.182;44.516;2023-12-07T02:13:00;198.05;;;120.03;;
34988;SDS011;21192;40.182;44.516;2023-12-07T02:15:26;180.75;;;116.97;;
34988;SDS011;21192;40.182;44.516;2023-12-07T02:23:29;191.68;;;116.45;;
34988;SDS011;21192;40.182;44.516;2023-12-07T02:29:13;182.00;;;109.90;;
34988;SDS011;21192;40.182;44.516;2023-12-07T02:31:39;178.40;;;109.47;;
34988;SDS011;21192;40.182;44.516;2023-12-07T02:34:05;173.02;;;106.03;;
34988;SDS011;21192;40.182;44.516;2023-12-07T02:36:32;172.70;;;103.63;;
34988;SDS011;21192;40.182;44.516;2023-12-07T02:39:00;161.80;;;101.68;;
34988;SDS011;21192;40.182;44.516;2023-12-07T02:41:29;164.57;;;99.10;;
34988;SDS011;21192;40.182;44.516;2023-12-07T02:43:57;170.18;;;106.05;;
34988;SDS011;21192;40.182;44.516;2023-12-07T02:46:24;160.93;;;103.85;;
34988;SDS011;21192;40.182;44.516;2023-12-07T02:48:51;170.20;;;103.35;;
34988;SDS011;21192;40.182;44.516;2023-12-07T02:51:16;169.55;;;104.07;;
34988;SDS011;21192;40.182;44.516;2023-12-07T02:53:42;173.68;;;104.32;;
34988;SDS011;21192;40.182;44.516;2023-12-07T02:56:08;151.15;;;97.38;;
34988;SDS011;21192;40.182;44.516;2023-12-07T02:58:34;159.50;;;98.78;;
34988;SDS011;21192;40.182;44.516;2023-12-07T03:01:00;156.50;;;95.07;;
34988;SDS011;21192;40.182;44.516;2023-12-07T03:03:26;153.68;;;95.22;;
34988;SDS011;21192;40.182;44.516;2023-12-07T03:05:52;154.63;;;96.78;;
34988;SDS011;21192;40.182;44.516;2023-12-07T03:08:18;155.32;;;93.13;;
34988;SDS011;21192;40.182;44.516;2023-12-07T03:10:43;153.05;;;93.35;;
34988;SDS011;21192;40.182;44.516;2023-12-07T03:13:09;156.20;;;95.35;;
34988;SDS011;21192;40.182;44.516;2023-12-07T03:15:35;140.88;;;89.22;;
34988;SDS011;21192;40.182;44.516;2023-12-07T03:18:01;144.60;;;88.40;;
34988;SDS011;21192;40.182;44.516;2023-12-07T03:20:27;137.25;;;86.70;;
34988;SDS011;21192;40.182;44.516;2023-12-07T03:22:53;133.82;;;86.18;;
34988;SDS011;21192;40.182;44.516;2023-12-07T03:25:19;138.38;;;87.65;;
34988;SDS011;21192;40.182;44.516;2023-12-07T03:27:45;137.45;;;89.05;;
34988;SDS011;21192;40.182;44.516;2023-12-07T03:30:11;141.93;;;88.68;;
34988;SDS011;21192;40.182;44.516;2023-12-07T03:32:37;140.75;;;88.32;;
34988;SDS011;21192;40.182;44.516;2023-12-07T03:35:03;148.20;;;87.97;;
34988;SDS011;21192;40.182;44.516;2023-12-07T03:37:29;147.07;;;86.25;;
34988;SDS011;21192;40.182;44.516;2023-12-07T03:39:55;135.57;;;87.60;;
34988;SDS011;21192;40.182;44.516;2023-12-07T03:42:20;141.40;;;87.07;;
34988;SDS011;21192;40.182;44.516;2023-12-07T03:44:46;138.52;;;87.20;;
34988;SDS011;21192;40.182;44.516;2023-12-07T03:47:12;172.00;;;101.32;;
34988;SDS011;21192;40.182;44.516;2023-12-07T03:49:38;156.32;;;96.90;;
34988;SDS011;21192;40.182;44.516;2023-12-07T03:52:06;157.68;;;102.28;;
34988;SDS011;21192;40.182;44.516;2023-12-07T03:54:32;164.00;;;103.57;;
34988;SDS011;21192;40.182;44.516;2023-12-07T03:56:58;169.63;;;102.93;;
34988;SDS011;21192;40.182;44.516;2023-12-07T03:59:24;146.20;;;92.53;;
34988;SDS011;21192;40.182;44.516;2023-12-07T04:01:49;133.98;;;84.07;;
34988;SDS011;21192;40.182;44.516;2023-12-07T04:04:15;134.73;;;81.57;;
34988;SDS011;21192;40.182;44.516;2023-12-07T04:06:41;136.13;;;84.63;;
34988;SDS011;21192;40.182;44.516;2023-12-07T04:09:07;132.43;;;84.30;;
34988;SDS011;21192;40.182;44.516;2023-12-07T04:11:33;147.32;;;90.13;;
34988;SDS011;21192;40.182;44.516;2023-12-07T04:13:59;169.30;;;108.15;;
34988;SDS011;21192;40.182;44.516;2023-12-07T04:16:24;186.60;;;122.72;;
34988;SDS011;21192;40.182;44.516;2023-12-07T04:18:51;202.77;;;128.02;;
34988;SDS011;21192;40.182;44.516;2023-12-07T04:21:17;210.35;;;130.60;;
34988;SDS011;21192;40.182;44.516;2023-12-07T04:23:42;215.90;;;135.70;;
34988;SDS011;21192;40.182;44.516;2023-12-07T04:26:08;213.18;;;136.13;;
34988;SDS011;21192;40.182;44.516;2023-12-07T04:28:34;225.75;;;139.70;;
34988;SDS011;21192;40.182;44.516;2023-12-07T04:31:00;220.75;;;138.32;;
34988;SDS011;21192;40.182;44.516;2023-12-07T04:33:26;234.52;;;140.55;;
34988;SDS011;21192;40.182;44.516;2023-12-07T04:35:52;232.65;;;140.70;;
34988;SDS011;21192;40.182;44.516;2023-12-07T04:38:18;227.88;;;141.25;;
34988;SDS011;21192;40.182;44.516;2023-12-07T04:40:43;235.80;;;143.02;;
34988;SDS011;21192;40.182;44.516;2023-12-07T04:43:09;233.05;;;142.82;;
34988;SDS011;21192;40.182;44.516;2023-12-07T04:45:35;242.85;;;145.18;;
34988;SDS011;21192;40.182;44.516;2023-12-07T04:48:01;233.63;;;142.57;;
34988;SDS011;21192;40.182;44.516;2023-12-07T04:50:28;227.80;;;142.43;;
34988;SDS011;21192;40.182;44.516;2023-12-07T04:52:54;222.23;;;140.18;;
34988;SDS011;21192;40.182;44.516;2023-12-07T04:55:20;238.13;;;141.23;;
34988;SDS011;21192;40.182;44.516;2023-12-07T04:57:46;227.90;;;140.15;;
34988;SDS011;21192;40.182;44.516;2023-12-07T05:00:12;229.30;;;138.68;;
34988;SDS011;21192;40.182;44.516;2023-12-07T05:02:39;223.82;;;137.70;;
34988;SDS011;21192;40.182;44.516;2023-12-07T05:05:05;220.43;;;136.40;;
34988;SDS011;21192;40.182;44.516;2023-12-07T05:07:31;217.02;;;137.07;;
34988;SDS011;21192;40.182;44.516;2023-12-07T05:09:57;211.45;;;133.50;;
34988;SDS011;21192;40.182;44.516;2023-12-07T05:12:22;215.70;;;134.15;;
34988;SDS011;21192;40.182;44.516;2023-12-07T05:14:48;211.13;;;133.48;;
34988;SDS011;21192;40.182;44.516;2023-12-07T05:17:15;217.68;;;135.82;;
34988;SDS011;21192;40.182;44.516;2023-12-07T05:19:41;216.02;;;136.80;;
34988;SDS011;21192;40.182;44.516;2023-12-07T05:22:09;212.27;;;133.55;;
34988;SDS011;21192;40.182;44.516;2023-12-07T05:24:35;202.30;;;130.57;;
34988;SDS011;21192;40.182;44.516;2023-12-07T05:27:01;211.10;;;133.63;;
34988;SDS011;21192;40.182;44.516;2023-12-07T05:29:27;211.52;;;135.10;;
34988;SDS011;21192;40.182;44.516;2023-12-07T05:31:53;213.05;;;130.75;;
34988;SDS011;21192;40.182;44.516;2023-12-07T05:34:19;210.23;;;134.02;;
34988;SDS011;21192;40.182;44.516;2023-12-07T05:36:44;211.93;;;133.02;;
34988;SDS011;21192;40.182;44.516;2023-12-07T05:39:11;222.82;;;136.30;;
34988;SDS011;21192;40.182;44.516;2023-12-07T05:41:38;224.90;;;143.68;;
34988;SDS011;21192;40.182;44.516;2023-12-07T05:44:04;217.90;;;137.32;;
34988;SDS011;21192;40.182;44.516;2023-12-07T05:46:30;223.85;;;138.98;;
34988;SDS011;21192;40.182;44.516;2023-12-07T05:48:56;198.38;;;129.93;;
34988;SDS011;21192;40.182;44.516;2023-12-07T05:51:22;196.48;;;118.82;;
34988;SDS011;21192;40.182;44.516;2023-12-07T05:53:48;181.75;;;115.43;;
34988;SDS011;21192;40.182;44.516;2023-12-07T05:56:18;194.02;;;120.47;;
34988;SDS011;21192;40.182;44.516;2023-12-07T05:58:45;193.82;;;120.03;;
34988;SDS011;21192;40.182;44.516;2023-12-07T06:01:12;183.15;;;119.05;;
34988;SDS011;21192;40.182;44.516;2023-12-07T06:03:37;179.38;;;115.35;;
34988;SDS011;21192;40.182;44.516;2023-12-07T06:06:03;183.93;;;114.03;;
34988;SDS011;21192;40.182;44.516;2023-12-07T06:08:30;183.75;;;113.93;;
34988;SDS011;21192;40.182;44.516;2023-12-07T06:10:56;171.60;;;109.35;;
34988;SDS011;21192;40.182;44.516;2023-12-07T06:13:22;172.90;;;106.15;;
34988;SDS011;21192;40.182;44.516;2023-12-07T06:15:47;161.95;;;102.00;;
34988;SDS011;21192;40.182;44.516;2023-12-07T06:18:13;162.35;;;99.72;;
34988;SDS011;21192;40.182;44.516;2023-12-07T06:20:39;143.88;;;92.25;;
34988;SDS011;21192;40.182;44.516;2023-12-07T06:23:07;143.57;;;90.53;;
34988;SDS011;21192;40.182;44.516;2023-12-07T06:25:38;148.38;;;90.57;;
34988;SDS011;21192;40.182;44.516;2023-12-07T06:28:04;151.25;;;96.00;;
34988;SDS011;21192;40.182;44.516;2023-12-07T06:30:30;147.43;;;92.43;;
34988;SDS011;21192;40.182;44.516;2023-12-07T06:32:56;151.32;;;92.38;;
34988;SDS011;21192;40.182;44.516;2023-12-07T06:35:22;149.75;;;88.53;;
34988;SDS011;21192;40.182;44.516;2023-12-07T06:37:48;160.05;;;94.35;;
34988;SDS011;21192;40.182;44.516;2023-12-07T06:40:14;142.07;;;87.13;;
34988;SDS011;21192;40.182;44.516;2023-12-07T06:42:40;142.88;;;87.45;;
34988;SDS011;21192;40.182;44.516;2023-12-07T06:45:06;137.10;;;86.13;;
34988;SDS011;21192;40.182;44.516;2023-12-07T06:47:39;141.35;;;86.30;;
34988;SDS011;21192;40.182;44.516;2023-12-07T06:50:07;126.65;;;78.90;;
34988;SDS011;21192;40.182;44.516;2023-12-07T06:52:35;118.85;;;78.47;;
34988;SDS011;21192;40.182;44.516;2023-12-07T06:55:04;130.40;;;80.15;;
34988;SDS011;21192;40.182;44.516;2023-12-07T06:57:31;119.03;;;75.15;;
34988;SDS011;21192;40.182;44.516;2023-12-07T06:59:57;125.07;;;74.45;;
34988;SDS011;21192;40.182;44.516;2023-12-07T07:02:22;117.10;;;71.63;;
34988;SDS011;21192;40.182;44.516;2023-12-07T07:04:49;122.53;;;75.22;;
34988;SDS011;21192;40.182;44.516;2023-12-07T07:07:15;121.25;;;74.25;;
34988;SDS011;21192;40.182;44.516;2023-12-07T07:09:41;127.95;;;75.85;;
34988;SDS011;21192;40.182;44.516;2023-12-07T07:12:07;111.75;;;72.82;;
34988;SDS011;21192;40.182;44.516;2023-12-07T07:14:33;140.90;;;85.22;;
34988;SDS011;21192;40.182;44.516;2023-12-07T07:16:59;146.55;;;88.47;;
34988;SDS011;21192;40.182;44.516;2023-12-07T07:19:25;157.77;;;96.22;;
34988;SDS011;21192;40.182;44.516;2023-12-07T07:21:51;156.00;;;96.07;;
34988;SDS011;21192;40.182;44.516;2023-12-07T07:24:17;153.98;;;94.93;;
34988;SDS011;21192;40.182;44.516;2023-12-07T07:26:43;160.60;;;98.18;;
34988;SDS011;21192;40.182;44.516;2023-12-07T07:29:08;145.57;;;94.53;;
34988;SDS011;21192;40.182;44.516;2023-12-07T07:31:34;153.73;;;93.68;;
34988;SDS011;21192;40.182;44.516;2023-12-07T07:34:01;146.52;;;95.50;;
34988;SDS011;21192;40.182;44.516;2023-12-07T07:36:27;153.52;;;100.10;;
34988;SDS011;21192;40.182;44.516;2023-12-07T07:38:54;159.35;;;100.50;;
34988;SDS011;21192;40.182;44.516;2023-12-07T07:41:20;158.10;;;100.47;;
34988;SDS011;21192;40.182;44.516;2023-12-07T07:43:46;147.27;;;97.97;;
34988;SDS011;21192;40.182;44.516;2023-12-07T07:46:12;169.68;;;103.65;;
34988;SDS011;21192;40.182;44.516;2023-12-07T07:48:39;185.57;;;116.97;;
34988;SDS011;21192;40.182;44.516;2023-12-07T07:51:05;193.77;;;124.70;;
34988;SDS011;21192;40.182;44.516;2023-12-07T07:53:30;194.73;;;125.30;;
34988;SDS011;21192;40.182;44.516;2023-12-07T07:55:56;203.70;;;129.13;;
34988;SDS011;21192;40.182;44.516;2023-12-07T07:58:22;181.90;;;118.38;;
34988;SDS011;21192;40.182;44.516;2023-12-07T08:00:48;185.52;;;122.65;;
34988;SDS011;21192;40.182;44.516;2023-12-07T08:03:14;199.63;;;128.43;;
34988;SDS011;21192;40.182;44.516;2023-12-07T08:05:40;208.48;;;135.00;;
34988;SDS011;21192;40.182;44.516;2023-12-07T08:08:06;196.38;;;129.25;;
34988;SDS011;21192;40.182;44.516;2023-12-07T08:10:32;216.88;;;137.00;;
34988;SDS011;21192;40.182;44.516;2023-12-07T08:12:58;205.40;;;131.68;;
34988;SDS011;21192;40.182;44.516;2023-12-07T08:15:24;207.82;;;128.73;;
34988;SDS011;21192;40.182;44.516;2023-12-07T08:17:50;205.73;;;133.48;;
34988;SDS011;21192;40.182;44.516;2023-12-07T08:20:16;196.05;;;130.45;;
34988;SDS011;21192;40.182;44.516;2023-12-07T08:22:41;201.30;;;133.05;;
34988;SDS011;21192;40.182;44.516;2023-12-07T08:25:09;204.82;;;133.40;;
34988;SDS011;21192;40.182;44.516;2023-12-07T08:27:36;212.20;;;133.57;;
34988;SDS011;21192;40.182;44.516;2023-12-07T08:30:03;193.85;;;125.55;;
34988;SDS011;21192;40.182;44.516;2023-12-07T08:32:29;202.45;;;129.40;;
34988;SDS011;21192;40.182;44.516;2023-12-07T08:34:56;194.60;;;128.80;;
34988;SDS011;21192;40.182;44.516;2023-12-07T08:37:22;199.00;;;124.53;;
34988;SDS011;21192;40.182;44.516;2023-12-07T08:39:47;189.50;;;122.38;;
34988;SDS011;21192;40.182;44.516;2023-12-07T08:42:14;191.40;;;122.82;;
34988;SDS011;21192;40.182;44.516;2023-12-07T08:44:40;186.13;;;120.03;;
34988;SDS011;21192;40.182;44.516;2023-12-07T08:47:06;187.43;;;119.65;;
34988;SDS011;21192;40.182;44.516;2023-12-07T08:49:32;189.07;;;119.50;;
34988;SDS011;21192;40.182;44.516;2023-12-07T08:51:58;177.07;;;120.07;;
34988;SDS011;21192;40.182;44.516;2023-12-07T08:54:24;180.60;;;114.22;;
34988;SDS011;21192;40.182;44.516;2023-12-07T08:56:50;173.40;;;112.75;;
34988;SDS011;21192;40.182;44.516;2023-12-07T08:59:16;169.02;;;112.88;;
34988;SDS011;21192;40.182;44.516;2023-12-07T09:01:43;173.50;;;111.95;;
34988;SDS011;21192;40.182;44.516;2023-12-07T09:04:08;181.30;;;112.18;;
34988;SDS011;21192;40.182;44.516;2023-12-07T09:06:35;173.10;;;111.72;;
34988;SDS011;21192;40.182;44.516;2023-12-07T09:09:02;177.20;;;110.05;;
34988;SDS011;21192;40.182;44.516;2023-12-07T09:11:29;170.38;;;108.55;;
34988;SDS011;21192;40.182;44.516;2023-12-07T09:13:56;168.48;;;105.50;;
34988;SDS011;21192;40.182;44.516;2023-12-07T09:16:22;165.57;;;106.82;;
34988;SDS011;21192;40.182;44.516;2023-12-07T09:18:48;163.55;;;103.15;;
34988;SDS011;21192;40.182;44.516;2023-12-07T09:21:14;176.23;;;108.95;;
34988;SDS011;21192;40.182;44.516;2023-12-07T09:23:40;177.65;;;107.50;;
34988;SDS011;21192;40.182;44.516;2023-12-07T09:26:06;179.02;;;104.65;;
34988;SDS011;21192;40.182;44.516;2023-12-07T09:28:33;164.68;;;108.53;;
34988;SDS011;21192;40.182;44.516;2023-12-07T09:30:59;163.20;;;104.63;;
34988;SDS011;21192;40.182;44.516;2023-12-07T09:33:25;159.60;;;103.18;;
34988;SDS011;21192;40.182;44.516;2023-12-07T09:35:51;163.88;;;104.97;;
34988;SDS011;21192;40.182;44.516;2023-12-07T09:38:17;162.98;;;105.70;;
34988;SDS011;21192;40.182;44.516;2023-12-07T09:40:43;169.15;;;101.53;;
34988;SDS011;21192;40.182;44.516;2023-12-07T09:43:10;160.43;;;103.63;;
34988;SDS011;21192;40.182;44.516;2023-12-07T09:45:37;154.63;;;104.38;;
34988;SDS011;21192;40.182;44.516;2023-12-07T09:48:03;161.35;;;104.20;;
34988;SDS011;21192;40.182;44.516;2023-12-07T09:50:30;157.00;;;100.93;;
34988;SDS011;21192;40.182;44.516;2023-12-07T09:52:56;162.13;;;99.68;;
34988;SDS011;21192;40.182;44.516;2023-12-07T09:55:24;154.52;;;99.47;;
34988;SDS011;21192;40.182;44.516;2023-12-07T09:57:52;154.27;;;97.75;;
34988;SDS011;21192;40.182;44.516;2023-12-07T10:00:21;156.88;;;100.43;;
34988;SDS011;21192;40.182;44.516;2023-12-07T10:02:47;157.57;;;101.63;;
34988;SDS011;21192;40.182;44.516;2023-12-07T10:05:14;148.60;;;94.40;;
34988;SDS011;21192;40.182;44.516;2023-12-07T10:07:44;143.57;;;98.72;;
34988;SDS011;21192;40.182;44.516;2023-12-07T10:10:14;152.60;;;96.57;;
34988;SDS011;21192;40.182;44.516;2023-12-07T10:12:59;145.13;;;94.03;;
34988;SDS011;21192;40.182;44.516;2023-12-07T10:15:25;147.70;;;95.55;;
34988;SDS011;21192;40.182;44.516;2023-12-07T10:17:54;141.35;;;96.60;;
34988;SDS011;21192;40.182;44.516;2023-12-07T10:20:22;150.23;;;95.53;;
34988;SDS011;21192;40.182;44.516;2023-12-07T10:25:31;129.30;;;84.13;;
34988;SDS011;21192;40.182;44.516;2023-12-07T10:27:59;143.48;;;90.30;;
34988;SDS011;21192;40.182;44.516;2023-12-07T10:30:26;138.65;;;90.45;;
34988;SDS011;21192;40.182;44.516;2023-12-07T10:32:52;148.48;;;93.18;;
34988;SDS011;21192;40.182;44.516;2023-12-07T10:35:18;134.75;;;92.15;;
34988;SDS011;21192;40.182;44.516;2023-12-07T10:37:45;148.88;;;94.03;;
34988;SDS011;21192;40.182;44.516;2023-12-07T10:40:12;143.98;;;93.82;;
34988;SDS011;21192;40.182;44.516;2023-12-07T10:42:38;137.50;;;91.97;;
34988;SDS011;21192;40.182;44.516;2023-12-07T10:45:06;146.45;;;94.40;;
34988;SDS011;21192;40.182;44.516;2023-12-07T10:47:37;154.32;;;98.82;;
34988;SDS011;21192;40.182;44.516;2023-12-07T10:50:06;144.63;;;94.90;;
34988;SDS011;21192;40.182;44.516;2023-12-07T10:52:48;149.57;;;95.28;;
34988;SDS011;21192;40.182;44.516;2023-12-07T10:55:21;138.55;;;93.82;;
34988;SDS011;21192;40.182;44.516;2023-12-07T10:58:00;148.65;;;92.13;;
34988;SDS011;21192;40.182;44.516;2023-12-07T11:00:27;144.93;;;94.65;;
34988;SDS011;21192;40.182;44.516;2023-12-07T11:02:54;152.88;;;94.15;;
34988;SDS011;21192;40.182;44.516;2023-12-07T11:05:20;139.65;;;91.85;;
34988;SDS011;21192;40.182;44.516;2023-12-07T11:10:18;128.93;;;87.78;;
34988;SDS011;21192;40.182;44.516;2023-12-07T11:15:52;130.77;;;87.22;;
34988;SDS011;21192;40.182;44.516;2023-12-07T11:18:18;132.50;;;85.57;;
34988;SDS011;21192;40.182;44.516;2023-12-07T11:20:46;154.50;;;90.30;;
34988;SDS011;21192;40.182;44.516;2023-12-07T11:23:16;133.48;;;86.18;;
34988;SDS011;21192;40.182;44.516;2023-12-07T11:25:45;134.88;;;90.32;;
34988;SDS011;21192;40.182;44.516;2023-12-07T11:28:12;127.32;;;86.50;;
34988;SDS011;21192;40.182;44.516;2023-12-07T11:30:41;132.45;;;86.00;;
34988;SDS011;21192;40.182;44.516;2023-12-07T11:33:10;132.50;;;86.00;;
34988;SDS011;21192;40.182;44.516;2023-12-07T11:38:29;135.98;;;89.00;;
34988;SDS011;21192;40.182;44.516;2023-12-07T11:40:55;135.20;;;89.72;;
34988;SDS011;21192;40.182;44.516;2023-12-07T11:46:06;143.00;;;89.28;;
34988;SDS011;21192;40.182;44.516;2023-12-07T11:48:32;149.30;;;92.07;;
34988;SDS011;21192;40.182;44.516;2023-12-07T11:50:59;143.75;;;92.68;;
34988;SDS011;21192;40.182;44.516;2023-12-07T11:53:27;153.88;;;97.53;;
34988;SDS011;21192;40.182;44.516;2023-12-07T11:55:55;147.98;;;91.20;;
34988;SDS011;21192;40.182;44.516;2023-12-07T11:58:24;153.80;;;96.57;;
34988;SDS011;21192;40.182;44.516;2023-12-07T12:00:53;144.35;;;87.70;;
34988;SDS011;21192;40.182;44.516;2023-12-07T12:03:21;143.35;;;84.82;;
34988;SDS011;21192;40.182;44.516;2023-12-07T12:05:48;144.35;;;86.13;;
34988;SDS011;21192;40.182;44.516;2023-12-07T12:08:15;154.88;;;89.53;;
34988;SDS011;21192;40.182;44.516;2023-12-07T12:10:42;166.80;;;90.13;;
34988;SDS011;21192;40.182;44.516;2023-12-07T12:13:08;150.85;;;87.18;;
34988;SDS011;21192;40.182;44.516;2023-12-07T12:15:34;130.70;;;83.10;;
34988;SDS011;21192;40.182;44.516;2023-12-07T12:18:01;133.15;;;79.10;;
34988;SDS011;21192;40.182;44.516;2023-12-07T12:20:27;124.60;;;71.93;;
34988;SDS011;21192;40.182;44.516;2023-12-07T12:22:53;120.50;;;69.85;;
34988;SDS011;21192;40.182;44.516;2023-12-07T12:25:23;118.50;;;70.97;;
34988;SDS011;21192;40.182;44.516;2023-12-07T12:28:01;122.68;;;71.15;;
34988;SDS011;21192;40.182;44.516;2023-12-07T12:30:29;129.45;;;71.35;;
34988;SDS011;21192;40.182;44.516;2023-12-07T12:32:56;120.63;;;69.25;;
34988;SDS011;21192;40.182;44.516;2023-12-07T12:35:22;122.22;;;71.43;;
34988;SDS011;21192;40.182;44.516;2023-12-07T12:37:49;118.47;;;68.80;;
34988;SDS011;21192;40.182;44.516;2023-12-07T12:40:16;116.32;;;69.55;;
34988;SDS011;21192;40.182;44.516;2023-12-07T12:42:46;118.30;;;68.63;;
34988;SDS011;21192;40.182;44.516;2023-12-07T12:45:13;120.65;;;68.45;;
34988;SDS011;21192;40.182;44.516;2023-12-07T12:47:40;110.63;;;66.97;;
34988;SDS011;21192;40.182;44.516;2023-12-07T12:50:08;108.35;;;66.85;;
34988;SDS011;21192;40.182;44.516;2023-12-07T12:52:37;109.32;;;68.32;;
34988;SDS011;21192;40.182;44.516;2023-12-07T12:55:08;121.45;;;71.22;;
34988;SDS011;21192;40.182;44.516;2023-12-07T12:57:37;117.00;;;69.10;;
34988;SDS011;21192;40.182;44.516;2023-12-07T13:00:03;123.25;;;73.65;;
34988;SDS011;21192;40.182;44.516;2023-12-07T13:02:32;128.05;;;72.07;;
34988;SDS011;21192;40.182;44.516;2023-12-07T13:04:58;118.43;;;70.63;;
34988;SDS011;21192;40.182;44.516;2023-12-07T13:07:24;122.68;;;69.72;;
34988;SDS011;21192;40.182;44.516;2023-12-07T13:09:53;125.45;;;70.25;;
34988;SDS011;21192;40.182;44.516;2023-12-07T13:12:19;113.07;;;71.03;;
34988;SDS011;21192;40.182;44.516;2023-12-07T13:14:47;121.82;;;74.07;;
34988;SDS011;21192;40.182;44.516;2023-12-07T13:17:13;117.88;;;72.07;;
34988;SDS011;21192;40.182;44.516;2023-12-07T13:19:39;118.20;;;69.32;;
34988;SDS011;21192;40.182;44.516;2023-12-07T13:22:05;120.55;;;72.07;;
34988;SDS011;21192;40.182;44.516;2023-12-07T13:24:31;116.63;;;73.05;;
34988;SDS011;21192;40.182;44.516;2023-12-07T13:26:57;104.47;;;67.80;;
34988;SDS011;21192;40.182;44.516;2023-12-07T13:29:25;115.50;;;72.45;;
34988;SDS011;21192;40.182;44.516;2023-12-07T13:31:51;111.28;;;70.38;;
34988;SDS011;21192;40.182;44.516;2023-12-07T13:34:17;116.70;;;72.78;;
34988;SDS011;21192;40.182;44.516;2023-12-07T13:36:43;120.18;;;72.28;;
34988;SDS011;21192;40.182;44.516;2023-12-07T13:39:09;132.43;;;76.55;;
34988;SDS011;21192;40.182;44.516;2023-12-07T13:41:38;119.80;;;69.97;;
34988;SDS011;21192;40.182;44.516;2023-12-07T13:44:04;114.38;;;71.75;;
34988;SDS011;21192;40.182;44.516;2023-12-07T13:46:30;116.13;;;74.90;;
34988;SDS011;21192;40.182;44.516;2023-12-07T13:48:58;127.20;;;77.53;;
34988;SDS011;21192;40.182;44.516;2023-12-07T13:51:24;125.72;;;77.00;;
34988;SDS011;21192;40.182;44.516;2023-12-07T13:53:50;130.95;;;83.13;;
34988;SDS011;21192;40.182;44.516;2023-12-07T13:56:20;132.88;;;82.78;;
34988;SDS011;21192;40.182;44.516;2023-12-07T13:58:46;144.95;;;88.78;;
34988;SDS011;21192;40.182;44.516;2023-12-07T14:01:12;154.82;;;94.22;;
34988;SDS011;21192;40.182;44.516;2023-12-07T14:03:38;138.88;;;84.10;;
34988;SDS011;21192;40.182;44.516;2023-12-07T14:06:04;124.55;;;78.82;;
34988;SDS011;21192;40.182;44.516;2023-12-07T14:08:30;127.75;;;78.53;;
34988;SDS011;21192;40.182;44.516;2023-12-07T14:10:56;128.95;;;76.38;;